createdAt,value
2022-09-21T00:00:30.493Z,5.63
2022-09-21T00:02:57.957Z,5.67
2022-09-21T00:05:24.995Z,5.69
2022-09-21T00:07:52.142Z,5.48
2022-09-21T00:10:20.401Z,5.56
2022-09-21T00:12:48.658Z,5.54
2022-09-21T00:15:19.836Z,5.39
2022-09-21T00:17:49.981Z,5.49
2022-09-21T00:20:16.923Z,5.55
2022-09-21T00:22:44.252Z,5.57
2022-09-21T00:25:10.876Z,5.52
2022-09-21T00:27:37.854Z,5.33
2022-09-21T00:30:06.872Z,5.44
2022-09-21T00:32:35.514Z,5.43
2022-09-21T00:35:03.230Z,5.54
2022-09-21T00:37:30.690Z,5.41
2022-09-21T00:39:57.327Z,5.16
2022-09-21T00:42:26.109Z,5.36
2022-09-21T00:44:52.788Z,5.40
2022-09-21T00:47:35.879Z,5.28
2022-09-21T00:50:07.826Z,5.38
2022-09-21T00:52:38.204Z,5.12
2022-09-21T00:55:13.116Z,5.24
2022-09-21T00:57:39.750Z,5.48
2022-09-21T01:00:08.948Z,5.61
2022-09-21T01:02:37.629Z,5.63
2022-09-21T01:05:06.251Z,5.65
2022-09-21T01:07:36.954Z,5.56
2022-09-21T01:10:13.082Z,5.49
2022-09-21T01:13:07.633Z,5.35
2022-09-21T01:16:15.984Z,5.28
2022-09-21T01:19:04.481Z,5.24
2022-09-21T01:21:38.885Z,5.34
2022-09-21T01:24:47.907Z,5.22
2022-09-21T01:27:32.636Z,5.22
2022-09-21T01:30:02.514Z,5.21
2022-09-21T01:32:42.258Z,5.15
2022-09-21T01:35:19.842Z,5.26
2022-09-21T01:38:01.832Z,5.17
2022-09-21T01:40:42.223Z,5.02
2022-09-21T01:43:14.390Z,4.96
2022-09-21T01:45:49.156Z,5.03
2022-09-21T01:48:17.417Z,5.17
2022-09-21T01:50:49.925Z,5.09
2022-09-21T01:53:38.267Z,5.06
2022-09-21T01:56:09.953Z,5.03
2022-09-21T01:58:43.519Z,4.87
2022-09-21T02:01:15.169Z,4.91
2022-09-21T02:03:52.098Z,4.79
2022-09-21T02:06:19.269Z,4.96
2022-09-21T02:08:46.682Z,4.75
2022-09-21T02:11:14.026Z,4.93
2022-09-21T02:13:45.984Z,4.99
2022-09-21T02:16:12.526Z,4.95
2022-09-21T02:19:02.715Z,4.86
2022-09-21T02:21:41.716Z,4.68
2022-09-21T02:24:26.677Z,4.73
2022-09-21T02:27:03.538Z,4.74
2022-09-21T02:29:42.650Z,4.72
2022-09-21T02:32:09.150Z,4.73
2022-09-21T02:34:47.265Z,4.53
2022-09-21T02:37:16.583Z,4.41
2022-09-21T02:39:45.609Z,4.45
2022-09-21T02:42:15.183Z,4.52
2022-09-21T02:44:48.970Z,4.56
2022-09-21T02:47:24.487Z,4.59
2022-09-21T02:49:56.665Z,4.40
2022-09-21T02:52:23.641Z,4.50
2022-09-21T02:54:52.409Z,4.57
2022-09-21T02:57:20.765Z,4.34
2022-09-21T02:59:47.778Z,4.34
2022-09-21T03:02:14.743Z,4.53
2022-09-21T03:04:42.448Z,4.55
2022-09-21T03:07:09.661Z,4.43
2022-09-21T03:09:36.277Z,4.49
2022-09-21T03:12:03.182Z,4.54
2022-09-21T03:14:29.787Z,4.32
2022-09-21T03:16:56.292Z,4.17
2022-09-21T03:19:22.847Z,4.29
2022-09-21T03:21:49.245Z,4.09
2022-09-21T03:24:35.630Z,4.07
2022-09-21T03:27:02.191Z,4.25
2022-09-21T03:29:28.608Z,4.30
2022-09-21T03:31:56.084Z,4.25
2022-09-21T03:34:23.013Z,4.17
2022-09-21T03:36:49.644Z,4.20
2022-09-21T03:39:16.148Z,4.07
2022-09-21T03:41:42.657Z,4.19
2022-09-21T03:44:09.092Z,4.25
2022-09-21T03:46:35.611Z,4.25
2022-09-21T03:49:03.077Z,4.12
2022-09-21T03:51:32.970Z,4.09
2022-09-21T03:53:59.385Z,4.14
2022-09-21T03:56:25.835Z,4.29
2022-09-21T03:58:52.241Z,4.21
2022-09-21T04:01:18.772Z,4.12
2022-09-21T04:03:45.267Z,3.84
2022-09-21T04:06:12.671Z,3.87
2022-09-21T04:08:39.682Z,4.12
2022-09-21T04:11:18.809Z,4.06
2022-09-21T04:13:49.252Z,3.98
2022-09-21T04:16:15.870Z,4.11
2022-09-21T04:18:42.425Z,4.05
2022-09-21T04:21:09.474Z,3.89
2022-09-21T04:23:35.932Z,3.94
2022-09-21T04:26:02.849Z,4.07
2022-09-21T04:28:29.811Z,3.85
2022-09-21T04:30:56.274Z,3.66
2022-09-21T04:33:23.978Z,3.88
2022-09-21T04:35:57.000Z,4.04
2022-09-21T04:38:23.516Z,4.04
2022-09-21T04:40:56.655Z,4.19
2022-09-21T04:43:23.356Z,4.07
2022-09-21T04:45:49.945Z,3.98
2022-09-21T04:48:16.571Z,4.04
2022-09-21T04:50:44.714Z,4.02
2022-09-21T04:53:11.154Z,4.02
2022-09-21T04:55:37.613Z,3.91
2022-09-21T04:58:04.018Z,3.93
2022-09-21T05:00:30.494Z,3.99
2022-09-21T05:02:56.904Z,4.11
2022-09-21T05:05:23.424Z,4.07
2022-09-21T05:07:49.849Z,4.01
2022-09-21T05:10:17.162Z,4.05
2022-09-21T05:12:43.885Z,4.09
2022-09-21T05:15:11.524Z,4.04
2022-09-21T05:17:38.244Z,3.94
2022-09-21T05:20:04.972Z,3.78
2022-09-21T05:22:31.385Z,3.67
2022-09-21T05:24:57.816Z,3.85
2022-09-21T05:27:24.310Z,3.90
2022-09-21T05:29:50.967Z,4.02
2022-09-21T05:32:17.391Z,4.06
2022-09-21T05:34:53.750Z,3.99
2022-09-21T05:37:32.249Z,4.20
2022-09-21T05:39:58.996Z,4.13
2022-09-21T05:42:25.726Z,4.08
2022-09-21T05:44:53.628Z,4.21
2022-09-21T05:47:20.053Z,4.30
2022-09-21T05:49:52.264Z,4.08
2022-09-21T05:52:32.822Z,4.16
2022-09-21T05:55:01.965Z,4.30
2022-09-21T05:57:34.453Z,4.34
2022-09-21T06:00:07.081Z,4.46
2022-09-21T06:02:52.456Z,4.47
2022-09-21T06:05:19.183Z,4.51
2022-09-21T06:07:47.689Z,4.51
2022-09-21T06:10:14.529Z,4.50
2022-09-21T06:12:40.969Z,4.41
2022-09-21T06:15:10.117Z,4.32
2022-09-21T06:17:36.574Z,4.39
2022-09-21T06:20:03.593Z,4.42
2022-09-21T06:22:30.126Z,4.31
2022-09-21T06:24:57.557Z,4.40
2022-09-21T06:27:24.035Z,4.49
2022-09-21T06:29:50.478Z,4.70
2022-09-21T06:32:16.898Z,4.80
2022-09-21T06:34:43.404Z,4.64
2022-09-21T06:37:09.942Z,4.89
2022-09-21T06:39:36.398Z,4.96
2022-09-21T06:42:02.941Z,4.71
2022-09-21T06:44:30.536Z,4.84
2022-09-21T06:46:57.000Z,4.88
2022-09-21T06:49:24.428Z,5.29
2022-09-21T06:51:50.897Z,5.52
2022-09-21T06:54:18.453Z,5.49
2022-09-21T06:56:45.197Z,5.39
2022-09-21T06:59:11.639Z,5.55
2022-09-21T07:01:38.253Z,5.62
2022-09-21T07:04:05.050Z,5.61
2022-09-21T07:06:31.664Z,5.74
2022-09-21T07:11:44.917Z,5.89
2022-09-21T07:14:11.345Z,6.15
2022-09-21T07:16:38.055Z,6.33
2022-09-21T07:19:10.984Z,6.34
2022-09-21T07:21:38.154Z,6.41
2022-09-21T07:24:08.253Z,6.53
2022-09-21T07:26:37.634Z,6.68
2022-09-21T07:29:04.143Z,6.79
2022-09-21T07:31:30.696Z,7.05
2022-09-21T07:33:58.366Z,7.38
2022-09-21T07:36:24.844Z,7.57
2022-09-21T07:38:51.293Z,7.72
2022-09-21T07:41:17.824Z,7.75
2022-09-21T07:43:44.397Z,7.74
2022-09-21T07:46:12.037Z,7.85
2022-09-21T07:48:38.476Z,7.55
2022-09-21T07:51:06.193Z,7.72
2022-09-21T07:53:37.796Z,7.46
2022-09-21T07:56:08.669Z,7.56
2022-09-21T07:58:54.872Z,7.98
2022-09-21T08:01:21.637Z,7.83
2022-09-21T08:03:51.950Z,8.12
2022-09-21T08:06:19.220Z,8.24
2022-09-21T08:08:47.890Z,8.43
2022-09-21T08:11:16.319Z,8.48
2022-09-21T08:13:42.814Z,8.97
2022-09-21T08:16:09.790Z,9.11
2022-09-21T08:18:36.976Z,9.26
2022-09-21T08:21:03.552Z,9.78
2022-09-21T08:23:30.469Z,9.98
2022-09-21T08:26:01.151Z,10.49
2022-09-21T08:28:28.526Z,10.56
2022-09-21T08:30:58.804Z,10.67
2022-09-21T08:33:29.543Z,11.49
2022-09-21T08:35:57.587Z,11.39
2022-09-21T08:38:24.090Z,11.80
2022-09-21T08:40:51.827Z,13.24
2022-09-21T08:43:36.959Z,13.85
2022-09-21T08:46:09.773Z,13.95
2022-09-21T08:48:41.096Z,14.56
2022-09-21T08:51:09.562Z,14.73
2022-09-21T08:53:42.036Z,14.90
2022-09-21T08:56:12.462Z,14.64
2022-09-21T08:58:42.618Z,14.79
2022-09-21T09:01:21.765Z,14.68
2022-09-21T09:04:07.254Z,14.98
2022-09-21T09:06:34.131Z,15.22
2022-09-21T09:09:12.335Z,15.21
2022-09-21T09:11:41.953Z,15.15
2022-09-21T09:14:14.506Z,15.54
2022-09-21T09:16:43.750Z,15.55
2022-09-21T09:19:28.930Z,15.70
2022-09-21T09:21:56.564Z,15.94
2022-09-21T09:24:34.658Z,16.03
2022-09-21T09:27:28.419Z,15.69
2022-09-21T09:29:57.381Z,16.03
2022-09-21T09:32:29.704Z,16.52
2022-09-21T09:35:00.717Z,16.98
2022-09-21T09:37:31.078Z,16.63
2022-09-21T09:40:00.391Z,16.31
2022-09-21T09:42:45.868Z,16.18
2022-09-21T09:45:27.674Z,15.92
2022-09-21T09:47:57.173Z,16.23
2022-09-21T09:50:32.108Z,15.80
2022-09-21T09:53:05.140Z,16.21
2022-09-21T09:55:48.164Z,16.34
2022-09-21T09:58:17.834Z,16.53
2022-09-21T10:00:45.297Z,16.68
2022-09-21T10:03:19.417Z,16.73
2022-09-21T10:05:46.252Z,16.87
2022-09-21T10:08:27.634Z,17.08
2022-09-21T10:10:54.176Z,16.46
2022-09-21T10:13:50.057Z,17.01
2022-09-21T10:16:23.459Z,16.99
2022-09-21T10:18:56.426Z,17.37
2022-09-21T10:21:24.908Z,16.38
2022-09-21T10:24:02.929Z,16.86
2022-09-21T10:26:37.067Z,17.33
2022-09-21T10:29:18.945Z,17.10
2022-09-21T10:32:00.541Z,17.29
2022-09-21T10:34:30.287Z,17.67
2022-09-21T10:36:58.222Z,17.68
2022-09-21T10:39:26.948Z,18.50
2022-09-21T10:41:53.455Z,18.21
2022-09-21T10:44:21.514Z,17.11
2022-09-21T10:46:49.711Z,16.96
2022-09-21T10:49:27.717Z,16.59
2022-09-21T10:51:57.929Z,16.11
2022-09-21T10:54:26.699Z,15.72
2022-09-21T10:56:54.119Z,15.48
2022-09-21T10:59:23.813Z,15.29
2022-09-21T11:01:51.688Z,14.98
2022-09-21T11:04:22.691Z,15.14
2022-09-21T11:06:51.683Z,14.92
2022-09-21T11:09:32.650Z,14.82
2022-09-21T11:12:06.072Z,14.72
2022-09-21T11:14:38.543Z,15.39
2022-09-21T11:17:11.434Z,15.06
2022-09-21T11:19:44.195Z,15.09
2022-09-21T11:22:27.564Z,16.20
2022-09-21T11:25:07.294Z,16.51
2022-09-21T11:27:36.236Z,17.13
2022-09-21T11:30:07.234Z,16.93
2022-09-21T11:32:37.257Z,17.01
2022-09-21T11:35:18.913Z,17.12
2022-09-21T11:38:04.683Z,17.36
2022-09-21T11:40:37.154Z,17.53
2022-09-21T11:43:21.543Z,17.48
2022-09-21T11:45:52.470Z,17.09
2022-09-21T11:48:22.094Z,17.16
2022-09-21T11:51:03.849Z,17.23
2022-09-21T11:53:41.984Z,17.12
2022-09-21T11:56:15.214Z,17.02
2022-09-21T11:58:41.642Z,17.26
2022-09-21T12:01:23.662Z,17.29
2022-09-21T12:03:50.911Z,17.24
2022-09-21T12:06:43.740Z,17.37
2022-09-21T12:09:25.429Z,17.91
2022-09-21T12:11:52.540Z,17.69
2022-09-21T12:14:22.625Z,17.48
2022-09-21T12:16:49.152Z,16.86
2022-09-21T12:19:27.707Z,17.27
2022-09-21T12:21:58.875Z,17.46
2022-09-21T12:24:32.011Z,17.92
2022-09-21T12:27:07.517Z,17.74
2022-09-21T12:29:38.168Z,17.56
2022-09-21T12:32:13.949Z,17.23
2022-09-21T12:34:46.525Z,17.10
2022-09-21T12:37:21.319Z,17.08
2022-09-21T12:39:50.913Z,17.10
2022-09-21T12:42:26.654Z,16.73
2022-09-21T12:44:56.952Z,16.89
2022-09-21T12:47:47.886Z,16.55
2022-09-21T12:50:34.576Z,16.49
2022-09-21T12:53:01.481Z,16.61
2022-09-21T12:56:01.163Z,16.71
2022-09-21T12:58:46.250Z,16.07
2022-09-21T13:01:15.592Z,16.26
2022-09-21T13:03:47.106Z,16.21
2022-09-21T13:06:20.669Z,15.73
2022-09-21T13:08:47.812Z,16.06
2022-09-21T13:11:21.062Z,16.19
2022-09-21T13:13:53.895Z,16.54
2022-09-21T13:16:24.628Z,16.67
2022-09-21T13:19:00.039Z,16.29
2022-09-21T13:21:30.046Z,16.49
2022-09-21T13:24:01.781Z,16.32
2022-09-21T13:26:31.526Z,16.49
2022-09-21T13:28:58.277Z,16.85
2022-09-21T13:31:41.421Z,16.84
2022-09-21T13:34:17.416Z,16.38
2022-09-21T13:36:43.875Z,16.23
2022-09-21T13:39:14.986Z,15.94
2022-09-21T13:41:59.389Z,15.88
2022-09-21T13:44:34.061Z,15.87
2022-09-21T13:47:02.305Z,15.68
2022-09-21T13:49:31.816Z,15.90
2022-09-21T13:52:01.172Z,16.30
2022-09-21T13:54:36.126Z,16.60
2022-09-21T13:57:20.567Z,16.56
2022-09-21T13:59:59.475Z,16.75
2022-09-21T14:02:32.658Z,16.84
2022-09-21T14:05:19.456Z,17.02
2022-09-21T14:07:47.030Z,16.77
2022-09-21T14:10:18.815Z,16.63
2022-09-21T14:12:47.881Z,16.55
2022-09-21T14:15:18.385Z,16.61
2022-09-21T14:17:45.362Z,16.40
2022-09-21T14:20:30.757Z,16.64
2022-09-21T14:23:20.057Z,16.39
2022-09-21T14:25:53.939Z,16.47
2022-09-21T14:28:36.750Z,16.16
2022-09-21T14:31:07.983Z,16.17
2022-09-21T14:33:46.782Z,16.34
2022-09-21T14:36:16.686Z,16.29
2022-09-21T14:38:54.205Z,16.06
2022-09-21T14:41:23.044Z,16.65
2022-09-21T14:43:53.236Z,16.84
2022-09-21T14:46:28.965Z,16.85
2022-09-21T14:49:14.411Z,16.87
2022-09-21T14:51:55.747Z,16.76
2022-09-21T14:54:36.248Z,16.92
2022-09-21T14:57:02.657Z,16.98
2022-09-21T14:59:32.144Z,16.87
2022-09-21T15:01:59.639Z,17.06
2022-09-21T15:04:45.711Z,17.14
2022-09-21T15:07:50.107Z,17.17
2022-09-21T15:10:38.572Z,16.48
2022-09-21T15:13:08.386Z,16.75
2022-09-21T15:15:46.456Z,16.76
2022-09-21T15:18:20.196Z,16.95
2022-09-21T15:21:13.040Z,16.90
2022-09-21T15:23:40.259Z,17.02
2022-09-21T15:26:16.311Z,16.90
2022-09-21T15:29:08.403Z,16.63
2022-09-21T15:31:39.308Z,16.66
2022-09-21T15:34:06.770Z,16.70
2022-09-21T15:36:38.620Z,16.64
2022-09-21T15:39:05.742Z,16.43
2022-09-21T15:41:44.885Z,16.45
2022-09-21T15:44:11.345Z,16.21
2022-09-21T15:46:38.138Z,16.05
2022-09-21T15:49:06.220Z,16.05
2022-09-21T15:51:39.746Z,15.81
2022-09-21T15:54:15.057Z,15.67
2022-09-21T15:56:43.654Z,15.70
2022-09-21T15:59:14.902Z,15.64
2022-09-21T16:01:44.480Z,15.64
2022-09-21T16:04:17.043Z,15.40
2022-09-21T16:06:46.958Z,15.37
2022-09-21T16:09:31.516Z,15.25
2022-09-21T16:11:58.140Z,15.07
2022-09-21T16:14:43.395Z,14.96
2022-09-21T16:17:21.163Z,14.70
2022-09-21T16:19:54.013Z,14.56
2022-09-21T16:22:50.394Z,14.44
2022-09-21T16:25:19.813Z,14.22
2022-09-21T16:27:51.142Z,14.26
2022-09-21T16:30:36.527Z,14.14
2022-09-21T16:33:04.845Z,14.06
2022-09-21T16:35:38.720Z,13.89
2022-09-21T16:38:10.361Z,13.89
2022-09-21T16:40:36.890Z,13.69
2022-09-21T16:43:05.554Z,13.63
2022-09-21T16:45:32.446Z,13.54
2022-09-21T16:47:59.622Z,13.45
2022-09-21T16:50:26.132Z,13.23
2022-09-21T16:52:52.746Z,13.02
2022-09-21T16:55:19.605Z,12.95
2022-09-21T16:57:49.093Z,12.76
2022-09-21T17:00:20.686Z,12.65
2022-09-21T17:02:48.251Z,12.56
2022-09-21T17:05:19.492Z,12.62
2022-09-21T17:07:53.490Z,12.47
2022-09-21T17:10:20.467Z,12.47
2022-09-21T17:12:47.238Z,12.31
2022-09-21T17:15:13.737Z,12.23
2022-09-21T17:17:40.200Z,12.18
2022-09-21T17:20:16.115Z,12.12
2022-09-21T17:22:42.781Z,12.04
2022-09-21T17:25:10.352Z,12.05
2022-09-21T17:27:37.033Z,11.92
2022-09-21T17:30:03.849Z,11.76
2022-09-21T17:32:30.352Z,11.64
2022-09-21T17:35:26.590Z,11.41
2022-09-21T17:37:53.063Z,11.69
2022-09-21T17:40:20.804Z,11.64
2022-09-21T17:42:48.722Z,11.66
2022-09-21T17:45:27.654Z,11.73
2022-09-21T17:47:54.344Z,11.71
2022-09-21T17:50:23.943Z,11.55
2022-09-21T17:53:10.357Z,11.30
2022-09-21T17:55:38.069Z,11.31
2022-09-21T17:58:10.400Z,11.27
2022-09-21T18:00:52.460Z,11.20
2022-09-21T18:03:24.489Z,11.23
2022-09-21T18:05:54.735Z,11.15
2022-09-21T18:08:21.403Z,10.89
2022-09-21T18:10:56.980Z,10.84
2022-09-21T18:13:47.224Z,10.79
2022-09-21T18:16:13.718Z,10.83
2022-09-21T18:18:45.908Z,10.66
2022-09-21T18:21:19.888Z,10.65
2022-09-21T18:24:00.878Z,10.83
2022-09-21T18:26:27.430Z,10.64
2022-09-21T18:29:12.647Z,10.52
2022-09-21T18:31:50.934Z,10.54
2022-09-21T18:34:32.521Z,10.43
2022-09-21T18:37:13.014Z,10.24
2022-09-21T18:39:42.528Z,10.32
2022-09-21T18:42:26.280Z,10.17
2022-09-21T18:45:19.368Z,10.22
2022-09-21T18:48:08.800Z,10.06
2022-09-21T18:50:58.275Z,10.20
2022-09-21T18:53:41.229Z,10.02
2022-09-21T18:56:08.517Z,9.93
2022-09-21T18:58:38.702Z,10.06
2022-09-21T19:01:06.832Z,10.13
2022-09-21T19:03:33.611Z,10.12
2022-09-21T19:06:29.394Z,9.95
2022-09-21T19:09:01.633Z,9.54
2022-09-21T19:11:34.883Z,9.74
2022-09-21T19:14:17.976Z,9.63
2022-09-21T19:16:45.721Z,9.70
2022-09-21T19:19:30.944Z,9.54
2022-09-21T19:22:20.304Z,9.31
2022-09-21T19:25:00.714Z,9.09
2022-09-21T19:27:34.281Z,9.28
2022-09-21T19:30:05.966Z,9.03
2022-09-21T19:32:38.636Z,8.96
2022-09-21T19:35:25.742Z,9.19
2022-09-21T19:37:53.701Z,9.17
2022-09-21T19:40:21.938Z,9.23
2022-09-21T19:42:52.492Z,9.32
2022-09-21T19:45:27.115Z,9.23
2022-09-21T19:47:54.574Z,9.19
2022-09-21T19:50:26.544Z,9.15
2022-09-21T19:53:13.187Z,9.16
2022-09-21T19:55:59.374Z,9.10
2022-09-21T19:58:44.185Z,9.03
2022-09-21T20:01:12.503Z,9.06
2022-09-21T20:03:42.515Z,9.03
2022-09-21T20:06:16.961Z,8.98
2022-09-21T20:08:50.177Z,8.84
2022-09-21T20:11:16.759Z,8.35
2022-09-21T20:13:53.489Z,8.55
2022-09-21T20:16:31.950Z,8.40
2022-09-21T20:19:18.157Z,8.58
2022-09-21T20:21:47.158Z,8.59
2022-09-21T20:24:18.107Z,8.55
2022-09-21T20:26:47.215Z,8.35
2022-09-21T20:29:13.743Z,8.45
2022-09-21T20:31:40.480Z,8.30
2022-09-21T20:34:06.899Z,8.42
2022-09-21T20:36:33.369Z,8.50
2022-09-21T20:39:00.039Z,8.23
2022-09-21T20:41:27.524Z,8.30
2022-09-21T20:43:53.978Z,8.25
2022-09-21T20:46:21.577Z,8.25
2022-09-21T20:48:48.196Z,8.16
2022-09-21T20:51:14.657Z,8.13
2022-09-21T20:53:42.127Z,8.16
2022-09-21T20:56:08.949Z,8.16
2022-09-21T20:58:35.837Z,8.04
2022-09-21T21:01:03.264Z,8.11
2022-09-21T21:03:29.839Z,8.10
2022-09-21T21:06:13.980Z,8.00
2022-09-21T21:08:40.457Z,7.94
2022-09-21T21:11:06.964Z,7.76
2022-09-21T21:13:33.435Z,7.60
2022-09-21T21:16:00.259Z,7.52
2022-09-21T21:18:27.112Z,7.68
2022-09-21T21:20:53.603Z,7.61
2022-09-21T21:23:21.046Z,7.50
2022-09-21T21:25:48.100Z,7.45
2022-09-21T21:28:15.546Z,7.33
2022-09-21T21:30:42.001Z,7.33
2022-09-21T21:33:08.446Z,7.35
2022-09-21T21:35:35.054Z,7.40
2022-09-21T21:38:01.556Z,7.31
2022-09-21T21:40:28.207Z,7.21
2022-09-21T21:42:55.549Z,7.11
2022-09-21T21:45:22.129Z,6.95
2022-09-21T21:47:48.761Z,7.20
2022-09-21T21:50:15.334Z,7.19
2022-09-21T21:52:41.826Z,7.23
2022-09-21T21:55:08.756Z,7.09
2022-09-21T21:57:35.186Z,7.20
2022-09-21T22:00:01.767Z,7.09
2022-09-21T22:02:29.548Z,7.00
2022-09-21T22:04:57.085Z,7.15
2022-09-21T22:07:23.785Z,7.11
2022-09-21T22:09:50.243Z,7.18
2022-09-21T22:12:16.726Z,7.08
2022-09-21T22:14:46.424Z,6.96
2022-09-21T22:17:13.075Z,6.77
2022-09-21T22:19:39.590Z,6.87
2022-09-21T22:22:06.061Z,6.79
2022-09-21T22:24:32.585Z,6.70
2022-09-21T22:26:59.036Z,6.82
2022-09-21T22:29:25.509Z,6.86
2022-09-21T22:31:52.099Z,6.82
2022-09-21T22:34:18.945Z,6.75
2022-09-21T22:36:45.531Z,6.79
2022-09-21T22:39:12.307Z,6.79
2022-09-21T22:41:39.798Z,6.63
2022-09-21T22:44:06.558Z,6.66
2022-09-21T22:46:33.436Z,6.60
2022-09-21T22:49:00.611Z,6.51
2022-09-21T22:51:29.154Z,6.53
2022-09-21T22:53:55.749Z,6.56
2022-09-21T22:56:23.483Z,6.44
2022-09-21T22:58:51.197Z,6.53
2022-09-21T23:01:20.401Z,6.55
2022-09-21T23:03:48.825Z,6.34
2022-09-21T23:06:17.745Z,6.42
2022-09-21T23:08:48.937Z,6.20
2022-09-21T23:11:16.782Z,6.34
2022-09-21T23:13:43.240Z,6.48
2022-09-21T23:16:11.189Z,6.54
2022-09-21T23:18:38.174Z,6.62
2022-09-21T23:21:07.725Z,6.48
2022-09-21T23:23:34.174Z,6.45
2022-09-21T23:26:05.054Z,6.28
2022-09-21T23:28:31.693Z,6.17
2022-09-21T23:31:00.313Z,6.24
2022-09-21T23:33:53.322Z,6.12
2022-09-21T23:36:21.228Z,6.06
2022-09-21T23:38:48.371Z,5.89
2022-09-21T23:41:16.733Z,6.11
2022-09-21T23:43:43.876Z,6.17
2022-09-21T23:46:13.138Z,6.04
2022-09-21T23:48:39.742Z,5.97
2022-09-21T23:51:06.776Z,5.91
2022-09-21T23:53:33.548Z,5.95
2022-09-21T23:56:00.071Z,5.98
2022-09-21T23:58:27.214Z,6.04
